Time;durP1;ratioP1;P1;durP2;ratioP2;P2;SDS_P1;SDS_P2;PMS_P1;PMS_P2;Temp;Humidity;BMP_temperature;BMP_pressure;BME280_temperature;BME280_humidity;BME280_pressure;Samples;Min_cycle;Max_cycle;Signal;HPM_P1;HPM_P2
2024/01/09 00:01:09;;;;;;;26.00;12.63;;;;;;;;;;4975946;28;20027;-82
2024/01/09 00:03:35;;;;;;;29.20;12.77;;;;;;;;;;4976649;28;20026;-82
2024/01/09 00:06:00;;;;;;;28.08;13.85;;;;;;;;;;4968914;28;20048;-82
2024/01/09 00:08:26;;;;;;;26.95;12.50;;;;;;;;;;4967896;28;20038;-82
2024/01/09 00:10:51;;;;;;;27.52;12.15;;;;;;;;;;4972810;28;20058;-82
2024/01/09 00:13:17;;;;;;;26.15;11.90;;;;;;;;;;4973259;28;20113;-82
2024/01/09 00:15:42;;;;;;;32.80;14.07;;;;;;;;;;4972052;28;20035;-82
2024/01/09 00:18:08;;;;;;;27.27;12.02;;;;;;;;;;4974190;28;20027;-81
2024/01/09 00:20:33;;;;;;;24.63;12.00;;;;;;;;;;4982680;28;20045;-82
2024/01/09 00:22:59;;;;;;;24.20;12.15;;;;;;;;;;4978469;28;20034;-82
2024/01/09 00:25:24;;;;;;;25.65;11.88;;;;;;;;;;4983851;28;20031;-82
2024/01/09 00:27:50;;;;;;;27.55;11.50;;;;;;;;;;4978483;28;20042;-82
2024/01/09 00:30:15;;;;;;;25.40;12.43;;;;;;;;;;4955439;28;20170;-81
2024/01/09 00:32:46;;;;;;;26.55;11.82;;;;;;;;;;4971050;28;20039;-81
2024/01/09 00:35:14;;;;;;;26.08;12.20;;;;;;;;;;4971816;28;20051;-81
2024/01/09 00:37:40;;;;;;;26.50;12.02;;;;;;;;;;4954192;28;20067;-81
2024/01/09 00:40:06;;;;;;;26.25;12.43;;;;;;;;;;4971268;28;20117;-84
2024/01/09 00:42:32;;;;;;;27.08;11.93;;;;;;;;;;4971786;28;20118;-83
2024/01/09 00:45:00;;;;;;;26.60;12.25;;;;;;;;;;4973475;28;20114;-81
2024/01/09 00:47:27;;;;;;;27.30;12.35;;;;;;;;;;4975563;28;20122;-84
2024/01/09 00:49:52;;;;;;;25.55;11.88;;;;;;;;;;4962177;28;20035;-83
2024/01/09 00:52:18;;;;;;;30.23;12.98;;;;;;;;;;4979999;28;20050;-82
2024/01/09 00:54:45;;;;;;;29.58;12.77;;;;;;;;;;4976309;28;20037;-82
2024/01/09 00:57:11;;;;;;;30.75;12.30;;;;;;;;;;4979307;28;20700;-83
2024/01/09 00:59:36;;;;;;;25.85;11.98;;;;;;;;;;4977970;28;20559;-81
2024/01/09 01:02:02;;;;;;;26.75;12.65;;;;;;;;;;4980007;28;20058;-82
2024/01/09 01:04:28;;;;;;;31.42;12.77;;;;;;;;;;4980904;28;20050;-82
2024/01/09 01:06:53;;;;;;;25.25;12.18;;;;;;;;;;4975433;28;20122;-83
2024/01/09 01:09:19;;;;;;;28.52;13.07;;;;;;;;;;4976490;28;20034;-82
2024/01/09 01:11:45;;;;;;;31.88;12.63;;;;;;;;;;4961577;28;20047;-83
2024/01/09 01:14:10;;;;;;;24.85;12.38;;;;;;;;;;4973568;28;20042;-82
2024/01/09 01:16:36;;;;;;;25.38;12.20;;;;;;;;;;4978101;28;20723;-83
2024/01/09 01:19:01;;;;;;;27.08;12.43;;;;;;;;;;4962608;28;20114;-83
2024/01/09 01:21:27;;;;;;;25.05;12.32;;;;;;;;;;4978409;28;20030;-83
2024/01/09 01:23:53;;;;;;;26.85;12.07;;;;;;;;;;4978588;28;20452;-83
2024/01/09 01:26:18;;;;;;;27.83;12.57;;;;;;;;;;4971885;28;20457;-83
2024/01/09 01:28:44;;;;;;;30.38;13.10;;;;;;;;;;4957391;28;20117;-83
2024/01/09 01:31:10;;;;;;;26.70;13.55;;;;;;;;;;4971606;28;20082;-83
2024/01/09 01:33:35;;;;;;;25.38;12.88;;;;;;;;;;4959546;28;20508;-82
2024/01/09 01:36:01;;;;;;;30.95;13.40;;;;;;;;;;4968807;28;20128;-83
2024/01/09 01:38:26;;;;;;;30.67;12.95;;;;;;;;;;4968301;28;20036;-83
2024/01/09 01:40:52;;;;;;;25.23;12.27;;;;;;;;;;4966153;28;20497;-83
2024/01/09 01:43:17;;;;;;;29.85;12.73;;;;;;;;;;4968241;28;20035;-82
2024/01/09 01:45:43;;;;;;;27.77;12.70;;;;;;;;;;4960903;28;20042;-83
2024/01/09 01:48:09;;;;;;;30.60;13.23;;;;;;;;;;4966133;28;20086;-82
2024/01/09 01:50:36;;;;;;;30.23;13.18;;;;;;;;;;4964365;28;20122;-83
2024/01/09 01:53:04;;;;;;;29.45;14.48;;;;;;;;;;4966066;28;20045;-83
2024/01/09 01:55:30;;;;;;;29.60;12.02;;;;;;;;;;4965456;28;20498;-83
2024/01/09 01:57:57;;;;;;;26.73;13.00;;;;;;;;;;4965530;28;20127;-83
2024/01/09 02:00:25;;;;;;;25.73;13.05;;;;;;;;;;4967017;28;20046;-83
2024/01/09 02:02:50;;;;;;;28.02;13.38;;;;;;;;;;4968790;28;20094;-83
2024/01/09 02:05:22;;;;;;;24.50;12.52;;;;;;;;;;4966639;28;20031;-83
2024/01/09 02:07:50;;;;;;;29.35;12.20;;;;;;;;;;4972330;28;20041;-83
2024/01/09 02:10:19;;;;;;;26.70;12.55;;;;;;;;;;4949087;28;20054;-83
2024/01/09 02:12:45;;;;;;;27.67;12.75;;;;;;;;;;4967657;28;20041;-83
2024/01/09 02:15:10;;;;;;;28.17;13.27;;;;;;;;;;4967963;28;20031;-83
2024/01/09 02:17:36;;;;;;;29.40;12.68;;;;;;;;;;4968298;28;20497;-82
2024/01/09 02:20:02;;;;;;;29.70;12.63;;;;;;;;;;4969336;28;20034;-83
2024/01/09 02:22:28;;;;;;;26.75;12.38;;;;;;;;;;4982402;28;20031;-82
2024/01/09 02:24:53;;;;;;;26.70;13.00;;;;;;;;;;4983219;28;20059;-82
2024/01/09 02:27:19;;;;;;;28.75;12.60;;;;;;;;;;4967258;28;20027;-82
2024/01/09 02:29:49;;;;;;;28.48;13.20;;;;;;;;;;4956490;28;20045;-82
2024/01/09 02:32:16;;;;;;;27.77;13.07;;;;;;;;;;4971723;28;20234;-83
2024/01/09 02:34:44;;;;;;;29.08;12.40;;;;;;;;;;4958593;28;20031;-83
2024/01/09 02:37:10;;;;;;;27.48;11.68;;;;;;;;;;4961085;28;20031;-82
2024/01/09 02:39:36;;;;;;;26.92;12.73;;;;;;;;;;4955433;28;20029;-82
2024/01/09 02:42:01;;;;;;;26.98;12.90;;;;;;;;;;4971951;28;20035;-82
2024/01/09 02:44:27;;;;;;;25.85;12.80;;;;;;;;;;4973664;28;20031;-83
2024/01/09 02:46:52;;;;;;;25.35;12.30;;;;;;;;;;4959773;28;20396;-82
2024/01/09 02:49:18;;;;;;;27.65;13.05;;;;;;;;;;4974126;28;20031;-83
2024/01/09 02:51:43;;;;;;;27.98;12.93;;;;;;;;;;4970176;28;20042;-84
2024/01/09 02:54:09;;;;;;;25.50;11.88;;;;;;;;;;4970659;28;20082;-83
2024/01/09 02:56:37;;;;;;;29.42;13.23;;;;;;;;;;4972396;28;20476;-82
2024/01/09 02:59:03;;;;;;;25.88;11.88;;;;;;;;;;4971922;28;20033;-83
2024/01/09 03:01:28;;;;;;;26.95;12.75;;;;;;;;;;4968767;28;20086;-83
2024/01/09 03:03:54;;;;;;;27.10;12.65;;;;;;;;;;4972335;28;20030;-83
2024/01/09 03:06:19;;;;;;;27.65;12.07;;;;;;;;;;4970520;28;20062;-84
2024/01/09 03:08:45;;;;;;;28.48;12.40;;;;;;;;;;4967647;28;20092;-84
2024/01/09 03:11:10;;;;;;;28.38;12.73;;;;;;;;;;4968411;28;20050;-83
2024/01/09 03:13:35;;;;;;;24.88;12.93;;;;;;;;;;4961732;28;20129;-83
2024/01/09 03:16:01;;;;;;;32.28;14.00;;;;;;;;;;4966792;28;20035;-83
2024/01/09 03:18:26;;;;;;;26.67;13.45;;;;;;;;;;4969923;28;20035;-83
2024/01/09 03:20:52;;;;;;;26.70;13.63;;;;;;;;;;4973408;28;20454;-83
2024/01/09 03:23:17;;;;;;;30.38;13.27;;;;;;;;;;4972681;28;20035;-84
2024/01/09 03:25:43;;;;;;;31.15;13.20;;;;;;;;;;4969627;28;20039;-84
2024/01/09 03:28:08;;;;;;;27.08;12.63;;;;;;;;;;4952098;28;20109;-83
2024/01/09 03:30:34;;;;;;;30.80;12.57;;;;;;;;;;4966317;28;20038;-83
2024/01/09 03:32:59;;;;;;;28.00;13.40;;;;;;;;;;4968080;28;20496;-83
2024/01/09 03:35:25;;;;;;;28.23;12.98;;;;;;;;;;4967772;28;20038;-84
2024/01/09 03:37:50;;;;;;;31.05;13.57;;;;;;;;;;4968224;28;20074;-83
2024/01/09 03:40:16;;;;;;;30.75;13.32;;;;;;;;;;4954777;28;20086;-83
2024/01/09 03:42:41;;;;;;;25.85;12.57;;;;;;;;;;4966506;28;20383;-84
2024/01/09 03:45:07;;;;;;;28.88;12.35;;;;;;;;;;4955803;28;20428;-84
2024/01/09 03:47:32;;;;;;;27.10;12.30;;;;;;;;;;4968047;28;20122;-84
2024/01/09 03:49:58;;;;;;;26.35;12.75;;;;;;;;;;4966743;28;20042;-83
2024/01/09 03:52:24;;;;;;;26.95;12.52;;;;;;;;;;4966920;28;20042;-83
2024/01/09 03:54:49;;;;;;;26.90;12.55;;;;;;;;;;4962280;28;20035;-83
2024/01/09 03:57:15;;;;;;;32.95;12.65;;;;;;;;;;4966406;28;20039;-83
2024/01/09 03:59:42;;;;;;;26.85;12.35;;;;;;;;;;4965777;28;20039;-84
2024/01/09 04:02:07;;;;;;;24.02;11.95;;;;;;;;;;4970012;28;20034;-83
2024/01/09 04:04:33;;;;;;;26.90;12.93;;;;;;;;;;4966756;28;20039;-83
2024/01/09 04:06:58;;;;;;;25.15;12.07;;;;;;;;;;4968721;28;20043;-84
2024/01/09 04:09:24;;;;;;;28.40;12.55;;;;;;;;;;4967816;28;20031;-84
2024/01/09 04:11:49;;;;;;;29.67;13.05;;;;;;;;;;4967392;28;20102;-84
2024/01/09 04:14:16;;;;;;;29.20;12.88;;;;;;;;;;4972241;28;20503;-85
2024/01/09 04:16:48;;;;;;;32.90;12.93;;;;;;;;;;4967377;28;20089;-85
2024/01/09 04:19:14;;;;;;;27.90;12.40;;;;;;;;;;4963564;28;20102;-83
2024/01/09 04:21:40;;;;;;;28.77;12.13;;;;;;;;;;4949098;28;20491;-84
2024/01/09 04:24:05;;;;;;;28.40;13.13;;;;;;;;;;4976939;28;20038;-83
2024/01/09 04:26:31;;;;;;;28.17;13.00;;;;;;;;;;4972548;28;20046;-84
2024/01/09 04:28:56;;;;;;;27.02;12.05;;;;;;;;;;4961125;28;20038;-84
2024/01/09 04:31:24;;;;;;;25.65;12.27;;;;;;;;;;4977101;28;20042;-84
2024/01/09 04:33:50;;;;;;;28.67;13.10;;;;;;;;;;4973919;28;20042;-84
2024/01/09 04:36:17;;;;;;;25.40;12.82;;;;;;;;;;4960364;28;20054;-84
2024/01/09 04:38:43;;;;;;;26.27;11.43;;;;;;;;;;4966688;28;20031;-84
2024/01/09 04:41:13;;;;;;;25.08;12.20;;;;;;;;;;4966713;28;20035;-84
2024/01/09 04:43:38;;;;;;;28.30;11.85;;;;;;;;;;4973114;28;20408;-85
2024/01/09 04:46:04;;;;;;;27.30;12.68;;;;;;;;;;4970564;28;20035;-84
2024/01/09 04:48:29;;;;;;;29.27;12.13;;;;;;;;;;4965806;28;20048;-83
2024/01/09 04:50:55;;;;;;;26.65;12.23;;;;;;;;;;4970123;28;20043;-83
2024/01/09 04:53:20;;;;;;;27.98;12.43;;;;;;;;;;4953309;28;20448;-83
2024/01/09 04:55:46;;;;;;;26.95;12.13;;;;;;;;;;4973507;28;20133;-84
2024/01/09 04:58:11;;;;;;;23.88;11.02;;;;;;;;;;4951571;28;20066;-84
2024/01/09 05:00:37;;;;;;;26.60;12.20;;;;;;;;;;4963826;28;20043;-84
2024/01/09 05:03:02;;;;;;;25.48;11.70;;;;;;;;;;4969277;28;20154;-83
2024/01/09 05:05:28;;;;;;;25.60;11.20;;;;;;;;;;4970999;28;20168;-84
2024/01/09 05:07:53;;;;;;;24.60;11.30;;;;;;;;;;4965346;28;20038;-84
2024/01/09 05:10:19;;;;;;;27.98;12.20;;;;;;;;;;4964613;28;20194;-84
2024/01/09 05:12:44;;;;;;;24.75;12.32;;;;;;;;;;4971285;28;20046;-83
2024/01/09 05:15:10;;;;;;;25.67;11.82;;;;;;;;;;4958801;28;20039;-84
2024/01/09 05:17:36;;;;;;;25.40;11.65;;;;;;;;;;4953531;28;20121;-84
2024/01/09 05:20:02;;;;;;;27.40;12.23;;;;;;;;;;4967242;28;20055;-84
2024/01/09 05:22:27;;;;;;;23.17;11.25;;;;;;;;;;4965948;28;20054;-84
2024/01/09 05:24:53;;;;;;;27.60;11.60;;;;;;;;;;4971547;28;20452;-83
2024/01/09 05:27:19;;;;;;;24.60;11.38;;;;;;;;;;4968534;28;20470;-84
2024/01/09 05:29:45;;;;;;;28.00;12.38;;;;;;;;;;4950130;28;20042;-83
2024/01/09 05:32:10;;;;;;;26.70;11.68;;;;;;;;;;4964361;28;20098;-84
2024/01/09 05:34:36;;;;;;;25.73;11.07;;;;;;;;;;4940268;28;20039;-84
2024/01/09 05:37:01;;;;;;;25.48;12.32;;;;;;;;;;4964525;28;20062;-85
2024/01/09 05:39:27;;;;;;;26.05;11.77;;;;;;;;;;4972073;28;20123;-84
2024/01/09 05:41:54;;;;;;;27.27;11.75;;;;;;;;;;4969953;28;20045;-84
2024/01/09 05:44:19;;;;;;;25.65;11.38;;;;;;;;;;4971688;28;20113;-84
2024/01/09 05:46:45;;;;;;;25.63;10.90;;;;;;;;;;4971622;28;20066;-84
2024/01/09 05:49:10;;;;;;;25.90;11.38;;;;;;;;;;4970882;28;20082;-84
2024/01/09 05:51:36;;;;;;;24.73;11.27;;;;;;;;;;4972684;28;20035;-84
2024/01/09 05:54:02;;;;;;;29.15;11.85;;;;;;;;;;4969083;28;20489;-84
2024/01/09 05:56:27;;;;;;;24.67;12.20;;;;;;;;;;4973992;28;20035;-84
2024/01/09 05:58:53;;;;;;;27.40;12.80;;;;;;;;;;4973958;28;20500;-85
2024/01/09 06:01:19;;;;;;;22.85;11.20;;;;;;;;;;4957697;28;20030;-84
2024/01/09 06:03:45;;;;;;;30.45;12.07;;;;;;;;;;4970489;28;20453;-84
2024/01/09 06:06:10;;;;;;;32.10;12.45;;;;;;;;;;4973193;28;20026;-84
2024/01/09 06:08:36;;;;;;;30.20;12.85;;;;;;;;;;4959957;28;20039;-84
2024/01/09 06:11:01;;;;;;;28.83;12.13;;;;;;;;;;4974046;28;20103;-84
2024/01/09 06:13:27;;;;;;;26.00;11.73;;;;;;;;;;4969571;28;20031;-83
2024/01/09 06:15:52;;;;;;;27.00;12.07;;;;;;;;;;4969009;28;20038;-84
2024/01/09 06:18:17;;;;;;;24.10;11.77;;;;;;;;;;4975186;28;20027;-84
2024/01/09 06:20:43;;;;;;;28.40;12.25;;;;;;;;;;4971910;28;20109;-84
2024/01/09 06:23:10;;;;;;;30.02;13.02;;;;;;;;;;4973090;28;20027;-83
2024/01/09 06:25:35;;;;;;;34.22;14.38;;;;;;;;;;4976176;28;20051;-83
2024/01/09 06:28:01;;;;;;;45.35;17.10;;;;;;;;;;4975004;28;20043;-84
2024/01/09 06:30:27;;;;;;;37.75;15.25;;;;;;;;;;4979994;28;20030;-84
2024/01/09 06:32:52;;;;;;;52.97;20.17;;;;;;;;;;4973955;28;20045;-84
2024/01/09 06:35:18;;;;;;;38.10;16.58;;;;;;;;;;4969539;28;20374;-83
2024/01/09 06:37:44;;;;;;;38.42;14.77;;;;;;;;;;4972674;28;20043;-83
2024/01/09 06:40:10;;;;;;;112.05;33.17;;;;;;;;;;4974351;28;20035;-83
2024/01/09 06:42:36;;;;;;;42.70;18.60;;;;;;;;;;4957965;28;20046;-85
2024/01/09 06:45:02;;;;;;;40.60;16.33;;;;;;;;;;4974800;28;20046;-84
2024/01/09 06:47:27;;;;;;;37.70;17.65;;;;;;;;;;4958843;28;20114;-84
2024/01/09 06:49:53;;;;;;;33.53;14.45;;;;;;;;;;4968557;28;20519;-82
2024/01/09 06:52:18;;;;;;;30.30;13.23;;;;;;;;;;4959297;28;20034;-83
2024/01/09 06:54:44;;;;;;;29.63;14.02;;;;;;;;;;4953584;28;20921;-83
2024/01/09 06:57:09;;;;;;;49.08;22.08;;;;;;;;;;4960799;28;20046;-83
2024/01/09 06:59:35;;;;;;;32.70;14.40;;;;;;;;;;4950892;28;20049;-84
2024/01/09 07:02:01;;;;;;;29.40;13.63;;;;;;;;;;4959475;28;20035;-85
2024/01/09 07:04:26;;;;;;;30.58;14.27;;;;;;;;;;4971980;28;20396;-85
2024/01/09 07:06:52;;;;;;;31.05;14.00;;;;;;;;;;4969263;28;20821;-84
2024/01/09 07:09:18;;;;;;;35.25;16.27;;;;;;;;;;4970468;28;20035;-83
2024/01/09 07:11:43;;;;;;;32.42;15.15;;;;;;;;;;4968872;28;20035;-83
2024/01/09 07:14:10;;;;;;;24.65;12.93;;;;;;;;;;4953155;28;20028;-84
2024/01/09 07:16:36;;;;;;;34.13;13.57;;;;;;;;;;4962970;28;20122;-83
2024/01/09 07:19:02;;;;;;;27.77;12.88;;;;;;;;;;4963057;28;20134;-84
2024/01/09 07:21:27;;;;;;;28.02;12.82;;;;;;;;;;4970499;28;20121;-83
2024/01/09 07:23:53;;;;;;;31.25;13.35;;;;;;;;;;4966381;28;20049;-84
2024/01/09 07:26:18;;;;;;;26.92;12.15;;;;;;;;;;4970822;28;20066;-83
2024/01/09 07:28:44;;;;;;;29.20;12.13;;;;;;;;;;4972633;28;20031;-84
2024/01/09 07:31:09;;;;;;;31.23;14.73;;;;;;;;;;4948950;28;20054;-84
2024/01/09 07:33:35;;;;;;;29.33;13.43;;;;;;;;;;4972239;28;20041;-83
2024/01/09 07:36:01;;;;;;;25.95;13.07;;;;;;;;;;4972576;28;20071;-84
2024/01/09 07:38:26;;;;;;;27.92;12.77;;;;;;;;;;4970442;28;20027;-82
2024/01/09 07:40:52;;;;;;;27.50;13.77;;;;;;;;;;4973614;28;20477;-83
2024/01/09 07:43:18;;;;;;;27.50;13.30;;;;;;;;;;4975839;28;20038;-84
2024/01/09 07:45:43;;;;;;;29.48;12.13;;;;;;;;;;4970927;28;20043;-83
2024/01/09 07:48:09;;;;;;;30.58;12.95;;;;;;;;;;4977679;28;20042;-84
2024/01/09 07:50:34;;;;;;;31.67;13.75;;;;;;;;;;4978450;28;20109;-83
2024/01/09 07:53:00;;;;;;;28.00;12.75;;;;;;;;;;4972596;28;20038;-83
2024/01/09 07:55:25;;;;;;;29.15;12.85;;;;;;;;;;4968916;28;20069;-83
2024/01/09 07:57:51;;;;;;;29.90;14.30;;;;;;;;;;4957149;28;20061;-83
2024/01/09 08:00:17;;;;;;;30.77;14.07;;;;;;;;;;4967445;28;20033;-83
2024/01/09 08:02:42;;;;;;;26.50;12.82;;;;;;;;;;4967834;28;20130;-84
2024/01/09 08:05:08;;;;;;;31.85;13.05;;;;;;;;;;4966951;28;20046;-83
2024/01/09 08:07:34;;;;;;;26.70;12.68;;;;;;;;;;4967955;28;20035;-83
2024/01/09 08:10:00;;;;;;;30.23;13.55;;;;;;;;;;4969646;28;20095;-85
2024/01/09 08:12:25;;;;;;;30.80;12.82;;;;;;;;;;4955054;28;20025;-84
2024/01/09 08:14:51;;;;;;;26.50;12.40;;;;;;;;;;4963720;28;20039;-83
2024/01/09 08:17:16;;;;;;;24.40;11.15;;;;;;;;;;4966733;28;20076;-84
2024/01/09 08:19:42;;;;;;;29.58;12.43;;;;;;;;;;4968967;28;20047;-83
2024/01/09 08:22:08;;;;;;;24.02;12.23;;;;;;;;;;4964976;28;20508;-84
2024/01/09 08:24:33;;;;;;;27.25;11.52;;;;;;;;;;4966228;28;20053;-84
2024/01/09 08:26:59;;;;;;;29.70;12.90;;;;;;;;;;4963476;28;20065;-84
2024/01/09 08:29:27;;;;;;;35.40;13.20;;;;;;;;;;4946771;28;20035;-87
2024/01/09 08:31:53;;;;;;;27.52;13.13;;;;;;;;;;4971731;28;20062;-86
2024/01/09 08:34:19;;;;;;;31.63;13.90;;;;;;;;;;4966800;28;20031;-83
2024/01/09 08:36:48;;;;;;;29.73;14.02;;;;;;;;;;4963443;28;20448;-82
2024/01/09 08:39:14;;;;;;;30.65;12.55;;;;;;;;;;4965349;28;20114;-84
2024/01/09 08:41:41;;;;;;;30.90;13.43;;;;;;;;;;4970147;28;20042;-87
2024/01/09 08:44:10;;;;;;;31.98;13.77;;;;;;;;;;4970772;28;20042;-86
2024/01/09 08:46:36;;;;;;;27.27;13.57;;;;;;;;;;4964155;28;20049;-85
2024/01/09 08:49:01;;;;;;;30.85;12.57;;;;;;;;;;4944509;28;20042;-84
2024/01/09 08:51:29;;;;;;;30.10;12.70;;;;;;;;;;4967709;28;20030;-85
2024/01/09 08:53:55;;;;;;;25.80;12.32;;;;;;;;;;4967964;28;20444;-84
2024/01/09 08:56:20;;;;;;;34.08;12.98;;;;;;;;;;4962331;28;20043;-84
2024/01/09 08:58:46;;;;;;;25.40;11.75;;;;;;;;;;4961854;28;20082;-84
2024/01/09 09:01:11;;;;;;;28.10;12.43;;;;;;;;;;4947685;28;20118;-84
2024/01/09 09:03:37;;;;;;;32.42;12.90;;;;;;;;;;4949236;28;20030;-84
2024/01/09 09:06:03;;;;;;;30.88;13.32;;;;;;;;;;4966890;28;20535;-85
2024/01/09 09:08:29;;;;;;;29.80;12.95;;;;;;;;;;4961344;28;20039;-83
2024/01/09 09:10:54;;;;;;;31.88;13.23;;;;;;;;;;4954544;28;20472;-84
2024/01/09 09:13:20;;;;;;;37.80;13.48;;;;;;;;;;4955963;28;20038;-84
2024/01/09 09:15:45;;;;;;;32.22;13.98;;;;;;;;;;4972582;28;20794;-84
2024/01/09 09:18:11;;;;;;;31.58;15.15;;;;;;;;;;4972301;28;20039;-84
2024/01/09 09:20:36;;;;;;;35.13;15.15;;;;;;;;;;4974556;28;20054;-85
2024/01/09 09:23:03;;;;;;;29.88;12.95;;;;;;;;;;4972824;28;20046;-84
2024/01/09 09:25:30;;;;;;;29.15;13.88;;;;;;;;;;4975640;28;20030;-84
2024/01/09 09:27:55;;;;;;;34.13;14.32;;;;;;;;;;4977532;28;20485;-86
2024/01/09 09:30:21;;;;;;;31.65;13.73;;;;;;;;;;4960773;28;20105;-86
2024/01/09 09:32:46;;;;;;;34.50;14.20;;;;;;;;;;4981146;28;20045;-85
2024/01/09 09:35:12;;;;;;;41.90;17.27;;;;;;;;;;4980823;28;20071;-86
2024/01/09 09:37:37;;;;;;;34.28;16.05;;;;;;;;;;4974680;28;20061;-85
2024/01/09 09:40:03;;;;;;;31.77;14.43;;;;;;;;;;4977354;28;20030;-86
2024/01/09 09:42:30;;;;;;;37.10;14.85;;;;;;;;;;4974186;28;20035;-88
2024/01/09 09:45:00;;;;;;;31.85;14.45;;;;;;;;;;4965389;28;20039;-85
2024/01/09 09:47:26;;;;;;;32.83;13.15;;;;;;;;;;4977579;28;20097;-84
2024/01/09 09:49:53;;;;;;;30.33;12.18;;;;;;;;;;4975429;28;20058;-85
2024/01/09 09:52:21;;;;;;;28.45;13.32;;;;;;;;;;4954008;28;20039;-85
2024/01/09 09:54:47;;;;;;;30.08;13.60;;;;;;;;;;4957615;28;20049;-88
2024/01/09 09:57:14;;;;;;;27.30;12.13;;;;;;;;;;4977968;28;20027;-84
2024/01/09 09:59:39;;;;;;;26.23;12.55;;;;;;;;;;4974416;28;20081;-85
2024/01/09 10:02:08;;;;;;;25.77;11.55;;;;;;;;;;4958298;28;20038;-86
2024/01/09 10:04:43;;;;;;;30.83;13.23;;;;;;;;;;4974346;28;20170;-86
2024/01/09 10:07:10;;;;;;;36.40;13.90;;;;;;;;;;4980036;28;20118;-84
2024/01/09 10:09:43;;;;;;;30.13;12.88;;;;;;;;;;4979904;28;20043;-83
2024/01/09 10:12:09;;;;;;;24.17;11.00;;;;;;;;;;4978224;28;20046;-83
2024/01/09 10:14:34;;;;;;;28.88;12.75;;;;;;;;;;4966290;28;20030;-83
2024/01/09 10:17:03;;;;;;;32.50;13.38;;;;;;;;;;4981926;28;20034;-83
2024/01/09 10:19:28;;;;;;;32.15;14.27;;;;;;;;;;4979924;28;20026;-83
2024/01/09 10:21:54;;;;;;;33.03;13.43;;;;;;;;;;4976598;28;20041;-83
2024/01/09 10:24:19;;;;;;;31.45;15.15;;;;;;;;;;4967433;28;20106;-82
2024/01/09 10:26:45;;;;;;;31.23;14.77;;;;;;;;;;4973866;28;20039;-84
2024/01/09 10:29:11;;;;;;;31.88;14.63;;;;;;;;;;4980223;28;20042;-84
2024/01/09 10:31:40;;;;;;;29.20;13.88;;;;;;;;;;4970477;28;20071;-83
2024/01/09 10:34:06;;;;;;;39.58;14.90;;;;;;;;;;4974616;28;20039;-84
2024/01/09 10:36:32;;;;;;;33.70;15.15;;;;;;;;;;4976812;28;20063;-84
2024/01/09 10:39:05;;;;;;;36.50;16.50;;;;;;;;;;4977709;28;20038;-83
2024/01/09 10:41:32;;;;;;;43.28;17.27;;;;;;;;;;4962304;28;20078;-84
2024/01/09 10:43:59;;;;;;;40.47;17.15;;;;;;;;;;4973288;28;20039;-82
2024/01/09 10:46:26;;;;;;;31.35;14.52;;;;;;;;;;4973618;28;20038;-85
2024/01/09 10:48:55;;;;;;;34.33;15.05;;;;;;;;;;4956854;28;20038;-84
2024/01/09 10:51:22;;;;;;;33.58;15.55;;;;;;;;;;4958931;28;20034;-83
2024/01/09 10:53:50;;;;;;;36.97;16.65;;;;;;;;;;4971932;28;20061;-82
2024/01/09 10:56:17;;;;;;;40.00;16.95;;;;;;;;;;4969725;28;20034;-84
2024/01/09 10:58:46;;;;;;;45.88;19.60;;;;;;;;;;4970108;28;20707;-83
2024/01/09 11:05:49;;;;;;;39.72;16.35;;;;;;;;;;4923312;28;20107;-84
2024/01/09 11:08:17;;;;;;;35.88;14.93;;;;;;;;;;4977119;28;20477;-84
2024/01/09 11:10:44;;;;;;;32.70;14.23;;;;;;;;;;4977050;28;20041;-84
2024/01/09 11:13:11;;;;;;;34.53;14.55;;;;;;;;;;4974148;28;20074;-87
2024/01/09 11:15:44;;;;;;;38.92;17.27;;;;;;;;;;4986007;28;20420;-87
2024/01/09 11:18:15;;;;;;;37.15;15.52;;;;;;;;;;4970039;28;20035;-85
2024/01/09 11:20:41;;;;;;;35.97;14.93;;;;;;;;;;4963694;28;20035;-86
2024/01/09 11:23:09;;;;;;;32.85;14.60;;;;;;;;;;4980761;28;20042;-85
2024/01/09 11:25:35;;;;;;;36.47;17.23;;;;;;;;;;4983476;28;20034;-84
2024/01/09 11:28:00;;;;;;;39.67;19.23;;;;;;;;;;4981914;28;20042;-84
2024/01/09 11:30:27;;;;;;;40.05;16.15;;;;;;;;;;4957477;28;20031;-85
2024/01/09 11:32:55;;;;;;;33.78;15.27;;;;;;;;;;4982100;28;20117;-85
2024/01/09 11:35:21;;;;;;;37.85;15.65;;;;;;;;;;4980191;28;20037;-87
2024/01/09 11:37:48;;;;;;;36.30;15.25;;;;;;;;;;4981696;28;20114;-87
2024/01/09 11:40:19;;;;;;;34.25;14.05;;;;;;;;;;4960851;28;20110;-85
2024/01/09 11:42:49;;;;;;;34.65;14.00;;;;;;;;;;4980796;28;20042;-86
2024/01/09 11:45:27;;;;;;;32.92;15.40;;;;;;;;;;4982610;28;20022;-86
2024/01/09 11:47:53;;;;;;;32.83;15.13;;;;;;;;;;4974758;28;20049;-85
2024/01/09 11:50:20;;;;;;;27.83;13.27;;;;;;;;;;4951177;28;20117;-87
2024/01/09 11:52:47;;;;;;;29.23;12.93;;;;;;;;;;4961472;28;20500;-85
2024/01/09 11:55:14;;;;;;;29.83;13.40;;;;;;;;;;4978116;28;20027;-83
2024/01/09 11:57:41;;;;;;;32.42;14.23;;;;;;;;;;4976892;28;20047;-85
2024/01/09 12:00:09;;;;;;;36.33;14.60;;;;;;;;;;4968602;28;20131;-85
2024/01/09 12:02:36;;;;;;;28.73;13.65;;;;;;;;;;4964132;28;20074;-85
2024/01/09 12:05:05;;;;;;;33.20;14.00;;;;;;;;;;4976451;28;20037;-84
2024/01/09 12:07:32;;;;;;;32.47;13.55;;;;;;;;;;4977396;28;20034;-85
2024/01/09 12:09:58;;;;;;;31.60;13.65;;;;;;;;;;4977195;28;20050;-85
2024/01/09 12:12:25;;;;;;;31.13;14.25;;;;;;;;;;4969331;28;20098;-84
2024/01/09 12:14:55;;;;;;;31.48;13.90;;;;;;;;;;4966155;28;20035;-86
2024/01/09 12:17:27;;;;;;;32.75;14.38;;;;;;;;;;4979120;28;20034;-85
2024/01/09 12:19:53;;;;;;;33.42;14.40;;;;;;;;;;4978702;28;20113;-85
2024/01/09 12:22:20;;;;;;;31.98;13.07;;;;;;;;;;4977312;28;20058;-85
2024/01/09 12:24:50;;;;;;;30.30;13.43;;;;;;;;;;4982958;28;20033;-86
2024/01/09 12:27:18;;;;;;;33.13;15.20;;;;;;;;;;4981733;28;20098;-85
2024/01/09 12:29:44;;;;;;;34.13;13.93;;;;;;;;;;4964773;28;20049;-86
2024/01/09 12:32:11;;;;;;;32.75;14.70;;;;;;;;;;4975921;28;20624;-86
2024/01/09 12:34:39;;;;;;;50.20;19.52;;;;;;;;;;4982539;28;20042;-86
2024/01/09 12:37:05;;;;;;;45.80;17.15;;;;;;;;;;4983084;28;20038;-86
2024/01/09 12:39:40;;;;;;;38.40;16.10;;;;;;;;;;4965844;28;20034;-86
2024/01/09 12:42:10;;;;;;;38.28;14.88;;;;;;;;;;4967001;28;20039;-85
2024/01/09 12:44:37;;;;;;;45.83;16.33;;;;;;;;;;4969092;28;20035;-85
2024/01/09 12:47:06;;;;;;;36.13;13.80;;;;;;;;;;4971968;28;20061;-85
2024/01/09 12:49:41;;;;;;;38.60;16.55;;;;;;;;;;4977863;28;20026;-85
2024/01/09 12:52:06;;;;;;;38.08;14.77;;;;;;;;;;4977620;28;20031;-87
2024/01/09 12:54:33;;;;;;;35.25;14.95;;;;;;;;;;4980314;28;20034;-84
2024/01/09 12:57:00;;;;;;;35.25;15.27;;;;;;;;;;4980824;28;20046;-84
2024/01/09 12:59:26;;;;;;;33.95;14.43;;;;;;;;;;4958020;28;20034;-84
2024/01/09 13:01:55;;;;;;;29.35;14.38;;;;;;;;;;4961166;28;20038;-86
2024/01/09 13:04:21;;;;;;;30.77;14.57;;;;;;;;;;4964720;28;20045;-86
2024/01/09 13:06:47;;;;;;;30.45;13.73;;;;;;;;;;4966543;28;20043;-86
2024/01/09 13:09:13;;;;;;;38.25;15.18;;;;;;;;;;4976591;28;20030;-84
2024/01/09 13:11:44;;;;;;;30.05;13.40;;;;;;;;;;4956099;28;20043;-87
2024/01/09 13:14:11;;;;;;;31.98;15.13;;;;;;;;;;4977048;28;20039;-85
2024/01/09 13:16:37;;;;;;;39.08;16.33;;;;;;;;;;4976160;28;20039;-86
2024/01/09 13:19:02;;;;;;;44.58;20.15;;;;;;;;;;4977197;28;20167;-84
2024/01/09 13:21:29;;;;;;;39.42;16.35;;;;;;;;;;4974459;28;20473;-83
2024/01/09 13:23:55;;;;;;;32.35;14.13;;;;;;;;;;4968746;28;20042;-83
2024/01/09 13:26:21;;;;;;;35.33;14.90;;;;;;;;;;4955816;28;20035;-83
2024/01/09 13:28:47;;;;;;;35.63;15.00;;;;;;;;;;4961520;28;20035;-83
2024/01/09 13:31:12;;;;;;;34.30;15.05;;;;;;;;;;4975556;28;20035;-86
2024/01/09 13:33:39;;;;;;;49.97;18.27;;;;;;;;;;4956604;28;20026;-87
2024/01/09 13:36:05;;;;;;;41.47;15.57;;;;;;;;;;4956159;28;20146;-88
2024/01/09 13:38:31;;;;;;;33.13;13.45;;;;;;;;;;4973178;28;20031;-87
2024/01/09 13:40:57;;;;;;;27.23;12.50;;;;;;;;;;4965724;28;20089;-86
2024/01/09 13:43:23;;;;;;;38.53;14.73;;;;;;;;;;4958392;28;20500;-89
2024/01/09 13:45:54;;;;;;;34.28;15.55;;;;;;;;;;4954846;28;20031;-87
2024/01/09 13:48:20;;;;;;;39.30;17.55;;;;;;;;;;4972097;28;20481;-86
2024/01/09 13:50:47;;;;;;;39.85;16.20;;;;;;;;;;4968164;28;20060;-86
2024/01/09 13:53:15;;;;;;;38.33;16.50;;;;;;;;;;4974652;28;20035;-88
2024/01/09 13:55:44;;;;;;;37.95;17.70;;;;;;;;;;4972842;28;20039;-86
2024/01/09 13:58:09;;;;;;;39.40;17.00;;;;;;;;;;4958141;28;20658;-88
2024/01/09 14:00:37;;;;;;;43.58;17.83;;;;;;;;;;4978178;28;20507;-87
2024/01/09 14:03:03;;;;;;;37.00;15.48;;;;;;;;;;4963195;28;20047;-87
2024/01/09 14:05:28;;;;;;;37.05;14.50;;;;;;;;;;4954486;28;20035;-86
2024/01/09 14:07:54;;;;;;;33.80;15.15;;;;;;;;;;4979519;28;20507;-87
2024/01/09 14:10:21;;;;;;;32.17;14.60;;;;;;;;;;4963453;28;20407;-89
2024/01/09 14:12:46;;;;;;;36.92;16.13;;;;;;;;;;4955194;28;20130;-86
2024/01/09 14:15:13;;;;;;;42.75;15.65;;;;;;;;;;4975915;28;20055;-87